createdAt,value
2023-01-26T00:01:23.942Z,-2.13
2023-01-26T00:03:51.681Z,-2.12
2023-01-26T00:06:26.968Z,-2.13
2023-01-26T00:08:59.201Z,-2.10
2023-01-26T00:11:33.905Z,-2.06
2023-01-26T00:14:01.024Z,-2.07
2023-01-26T00:16:34.990Z,-2.16
2023-01-26T00:19:01.756Z,-2.11
2023-01-26T00:21:34.965Z,-2.03
2023-01-26T00:24:07.947Z,-2.11
2023-01-26T00:26:34.745Z,-2.05
2023-01-26T00:29:07.967Z,-2.01
2023-01-26T00:31:34.741Z,-2.10
2023-01-26T00:34:07.981Z,-2.03
2023-01-26T00:36:37.800Z,-2.17
2023-01-26T00:39:10.974Z,-2.15
2023-01-26T00:42:02.419Z,-2.05
2023-01-26T00:44:35.903Z,-2.05
2023-01-26T00:47:08.871Z,-2.05
2023-01-26T00:49:41.953Z,-2.04
2023-01-26T00:52:29.889Z,-2.00
2023-01-26T00:55:02.872Z,-2.01
2023-01-26T00:57:35.959Z,-2.05
2023-01-26T01:00:09.399Z,-2.07
2023-01-26T01:02:43.001Z,-2.02
2023-01-26T01:05:15.889Z,-2.03
2023-01-26T01:07:48.920Z,-2.04
2023-01-26T01:10:22.951Z,-2.03
2023-01-26T01:12:56.021Z,-1.99
2023-01-26T01:15:22.788Z,-1.98
2023-01-26T01:17:56.026Z,-1.96
2023-01-26T01:20:22.786Z,-1.99
2023-01-26T01:22:57.923Z,-1.99
2023-01-26T01:25:24.773Z,-1.98
2023-01-26T01:27:51.426Z,-1.96
2023-01-26T01:30:25.072Z,-2.01
2023-01-26T01:32:52.374Z,-1.93
2023-01-26T01:35:25.967Z,-2.01
2023-01-26T01:37:58.957Z,-1.99
2023-01-26T01:40:31.948Z,-2.02
2023-01-26T01:42:58.610Z,-2.02
2023-01-26T01:45:51.018Z,-1.95
2023-01-26T01:48:34.925Z,-1.94
2023-01-26T01:51:14.942Z,-2.03
2023-01-26T01:53:52.945Z,-1.96
2023-01-26T01:56:29.920Z,-2.06
2023-01-26T01:58:59.923Z,-1.96
2023-01-26T02:01:33.001Z,-1.92
2023-01-26T02:04:02.104Z,-1.94
2023-01-26T02:06:49.938Z,-1.90
2023-01-26T02:09:37.273Z,-1.96
2023-01-26T02:12:13.963Z,-1.88
2023-01-26T02:14:41.684Z,-1.86
2023-01-26T02:17:16.119Z,-1.86
2023-01-26T02:20:08.331Z,-1.86
2023-01-26T02:23:12.957Z,-1.83
2023-01-26T02:26:02.033Z,-1.83
2023-01-26T02:28:35.994Z,-1.82
2023-01-26T02:31:03.874Z,-1.84
2023-01-26T02:33:38.961Z,-1.81
2023-01-26T02:36:07.336Z,-1.83
2023-01-26T02:38:49.951Z,-1.82
2023-01-26T02:41:37.787Z,-1.86
2023-01-26T02:44:13.989Z,-1.83
2023-01-26T02:46:47.038Z,-1.81
2023-01-26T02:49:32.490Z,-1.88
2023-01-26T02:52:05.996Z,-1.76
2023-01-26T02:54:57.973Z,-1.76
2023-01-26T02:57:31.024Z,-1.76
2023-01-26T02:59:57.892Z,-1.80
2023-01-26T03:02:31.041Z,-1.83
2023-01-26T03:04:57.737Z,-1.85
2023-01-26T03:07:30.967Z,-1.76
2023-01-26T03:10:06.073Z,-1.75
2023-01-26T03:12:32.848Z,-1.84
2023-01-26T03:15:24.969Z,-1.84
2023-01-26T03:17:51.724Z,-1.86
2023-01-26T03:20:42.960Z,-1.76
2023-01-26T03:23:28.222Z,-1.77
2023-01-26T03:26:20.039Z,-1.75
2023-01-26T03:28:53.011Z,-1.73
2023-01-26T03:31:26.046Z,-1.72
2023-01-26T03:33:58.971Z,-1.70
2023-01-26T03:36:32.031Z,-1.69
2023-01-26T03:39:05.270Z,-1.68
2023-01-26T03:41:50.864Z,-1.70
2023-01-26T03:44:42.997Z,-1.72
2023-01-26T03:47:28.301Z,-1.70
2023-01-26T03:50:20.003Z,-1.73
2023-01-26T03:53:12.017Z,-1.67
2023-01-26T03:55:57.611Z,-1.67
2023-01-26T03:58:30.991Z,-1.67
2023-01-26T04:00:57.908Z,-1.67
2023-01-26T04:03:49.976Z,-1.66
2023-01-26T04:06:42.017Z,-1.59
2023-01-26T04:09:15.013Z,-1.56
2023-01-26T04:11:48.077Z,-1.56
2023-01-26T04:14:49.735Z,-1.54
2023-01-26T04:17:37.001Z,-1.59
2023-01-26T04:20:31.072Z,-1.50
2023-01-26T04:22:57.811Z,-1.49
2023-01-26T04:25:31.047Z,-1.49
2023-01-26T04:27:58.039Z,-1.52
2023-01-26T04:30:31.152Z,-1.51
2023-01-26T04:33:06.060Z,-1.60
2023-01-26T04:35:40.960Z,-1.48
2023-01-26T04:38:14.045Z,-1.45
2023-01-26T04:40:47.053Z,-1.46
2023-01-26T04:43:13.764Z,-1.46
2023-01-26T04:45:47.129Z,-1.44
2023-01-26T04:48:13.792Z,-1.44
2023-01-26T04:50:47.195Z,-1.41
2023-01-26T04:53:20.110Z,-1.40
2023-01-26T04:55:52.999Z,-1.39
2023-01-26T04:58:20.216Z,-1.41
2023-01-26T05:01:01.100Z,-1.39
2023-01-26T05:03:27.835Z,-1.40
2023-01-26T05:05:58.297Z,-1.37
2023-01-26T05:08:33.080Z,-1.37
2023-01-26T05:10:59.758Z,-1.33
2023-01-26T05:13:32.993Z,-1.34
2023-01-26T05:15:59.624Z,-1.35
2023-01-26T05:18:33.036Z,-1.31
2023-01-26T05:21:06.082Z,-1.29
2023-01-26T05:23:32.778Z,-1.32
2023-01-26T05:26:06.075Z,-1.35
2023-01-26T05:28:34.331Z,-1.29
2023-01-26T05:31:08.057Z,-1.26
2023-01-26T05:33:34.973Z,-1.27
2023-01-26T05:36:12.047Z,-1.29
2023-01-26T05:38:38.806Z,-1.27
2023-01-26T05:41:14.055Z,-1.26
2023-01-26T05:43:41.004Z,-1.27
2023-01-26T05:46:14.153Z,-1.26
2023-01-26T05:48:40.912Z,-1.22
2023-01-26T05:51:14.114Z,-1.22
2023-01-26T05:53:47.402Z,-1.22
2023-01-26T05:56:21.032Z,-1.22
2023-01-26T05:58:47.670Z,-1.22
2023-01-26T06:01:21.061Z,-1.20
2023-01-26T06:03:54.061Z,-1.19
2023-01-26T06:06:20.870Z,-1.18
2023-01-26T06:08:54.016Z,-1.18
2023-01-26T06:11:20.808Z,-1.20
2023-01-26T06:13:55.025Z,-1.18
2023-01-26T06:16:21.838Z,-1.18
2023-01-26T06:18:56.078Z,-1.19
2023-01-26T06:21:23.143Z,-1.15
2023-01-26T06:23:56.150Z,-1.16
2023-01-26T06:26:31.090Z,-1.13
2023-01-26T06:28:57.890Z,-1.13
2023-01-26T06:31:31.184Z,-1.13
2023-01-26T06:33:57.926Z,-1.14
2023-01-26T06:36:24.654Z,-1.10
2023-01-26T06:39:00.958Z,-1.09
2023-01-26T06:41:34.121Z,-1.08
2023-01-26T06:44:00.863Z,-1.08
2023-01-26T06:46:34.045Z,-1.05
2023-01-26T06:49:09.056Z,-1.04
2023-01-26T06:51:41.770Z,-1.03
2023-01-26T06:54:27.040Z,-1.02
2023-01-26T06:56:53.743Z,-1.03
2023-01-26T06:59:27.008Z,-0.98
2023-01-26T07:01:53.781Z,-0.97
2023-01-26T07:04:27.080Z,-0.95
2023-01-26T07:07:00.089Z,-0.96
2023-01-26T07:09:26.774Z,-0.94
2023-01-26T07:12:00.108Z,-0.95
2023-01-26T07:14:33.131Z,-0.94
2023-01-26T07:16:59.917Z,-0.96
2023-01-26T07:19:26.613Z,-0.94
2023-01-26T07:22:00.125Z,-0.91
2023-01-26T07:24:26.957Z,-0.91
2023-01-26T07:27:00.268Z,-0.89
2023-01-26T07:29:26.919Z,-0.88
2023-01-26T07:32:00.183Z,-0.86
2023-01-26T07:34:26.974Z,-0.87
2023-01-26T07:37:00.177Z,-0.85
2023-01-26T07:39:27.088Z,-0.84
2023-01-26T07:41:53.841Z,-0.82
2023-01-26T07:44:27.221Z,-0.79
2023-01-26T07:46:54.886Z,-0.80
2023-01-26T07:49:28.201Z,-0.78
2023-01-26T07:52:02.337Z,-0.76
2023-01-26T07:54:43.054Z,-0.77
2023-01-26T07:57:16.039Z,-0.78
2023-01-26T07:59:49.042Z,-0.75
2023-01-26T08:02:15.803Z,-0.73
2023-01-26T08:04:49.067Z,-0.72
2023-01-26T08:07:15.914Z,-0.67
2023-01-26T08:09:49.096Z,-0.67
2023-01-26T08:12:15.747Z,-0.65
2023-01-26T08:14:47.101Z,-0.64
2023-01-26T08:17:28.060Z,-0.65
2023-01-26T08:20:01.166Z,-0.59
2023-01-26T08:22:34.245Z,-0.58
2023-01-26T08:25:01.189Z,-0.56
2023-01-26T08:27:34.025Z,-0.54
2023-01-26T08:30:00.718Z,-0.51
2023-01-26T08:32:37.089Z,-0.51
2023-01-26T08:35:04.432Z,-0.48
2023-01-26T08:37:38.252Z,-0.46
2023-01-26T08:40:08.454Z,-0.44
2023-01-26T08:42:42.065Z,-0.43
2023-01-26T08:45:09.024Z,-0.40
2023-01-26T08:47:42.113Z,-0.40
2023-01-26T08:50:09.915Z,-0.36
2023-01-26T08:52:43.120Z,-0.40
2023-01-26T08:55:23.251Z,-0.33
2023-01-26T08:57:52.820Z,-0.34
2023-01-26T09:00:26.104Z,-0.33
2023-01-26T09:03:07.190Z,-0.31
2023-01-26T09:05:43.070Z,-0.31
2023-01-26T09:08:10.739Z,-0.29
2023-01-26T09:10:45.147Z,-0.33
2023-01-26T09:13:12.005Z,-0.27
2023-01-26T09:15:45.119Z,-0.25
2023-01-26T09:18:11.937Z,-0.24
2023-01-26T09:20:46.162Z,-0.29
2023-01-26T09:23:12.767Z,-0.20
2023-01-26T09:25:40.050Z,-0.22
2023-01-26T09:28:14.171Z,-0.21
2023-01-26T09:30:41.002Z,-0.18
2023-01-26T09:33:14.218Z,-0.14
2023-01-26T09:35:40.901Z,-0.07
2023-01-26T09:38:14.148Z,-0.02
2023-01-26T09:41:01.785Z,0.02
2023-01-26T09:44:00.176Z,0.05
2023-01-26T09:47:02.114Z,0.13
2023-01-26T09:49:31.823Z,0.14
2023-01-26T09:52:21.084Z,0.20
2023-01-26T09:55:00.244Z,0.23
2023-01-26T09:57:54.140Z,0.29
2023-01-26T10:00:46.155Z,0.31
2023-01-26T10:03:44.859Z,0.34
2023-01-26T10:06:35.124Z,0.36
2023-01-26T10:09:15.071Z,0.43
2023-01-26T10:11:53.275Z,0.51
2023-01-26T10:14:37.059Z,0.58
2023-01-26T10:17:06.326Z,0.68
2023-01-26T10:20:18.219Z,0.76
2023-01-26T10:22:52.222Z,0.81
2023-01-26T10:25:33.496Z,0.90
2023-01-26T10:28:07.157Z,0.94
2023-01-26T10:30:33.868Z,0.96
2023-01-26T10:33:07.140Z,0.97
2023-01-26T10:35:33.899Z,0.97
2023-01-26T10:38:07.169Z,1.02
2023-01-26T10:40:44.685Z,1.07
2023-01-26T10:43:26.178Z,1.08
2023-01-26T10:45:59.151Z,1.12
2023-01-26T10:48:33.180Z,1.18
2023-01-26T10:51:21.753Z,1.22
2023-01-26T10:53:55.442Z,1.30
2023-01-26T10:56:22.233Z,1.38
2023-01-26T10:59:02.137Z,1.49
2023-01-26T11:01:28.924Z,1.63
2023-01-26T11:04:13.155Z,1.73
2023-01-26T11:06:39.970Z,1.82
2023-01-26T11:09:21.149Z,1.92
2023-01-26T11:12:06.034Z,2.01
2023-01-26T11:14:40.149Z,2.06
2023-01-26T11:17:08.191Z,2.12
2023-01-26T11:19:56.187Z,2.17
2023-01-26T11:22:33.863Z,2.27
2023-01-26T11:25:10.597Z,2.33
2023-01-26T11:27:54.586Z,2.38
2023-01-26T11:30:37.226Z,2.33
2023-01-26T11:33:30.652Z,2.44
2023-01-26T11:36:23.265Z,2.46
2023-01-26T11:39:35.112Z,2.47
2023-01-26T11:42:24.183Z,2.59
2023-01-26T11:45:11.672Z,2.67
2023-01-26T11:48:00.215Z,2.70
2023-01-26T11:51:03.632Z,2.78
2023-01-26T11:54:03.250Z,2.85
2023-01-26T11:57:01.218Z,2.95
2023-01-26T11:59:40.194Z,2.96
2023-01-26T12:02:34.337Z,2.98
2023-01-26T12:05:13.629Z,3.16
2023-01-26T12:08:03.245Z,3.34
2023-01-26T12:10:42.173Z,3.42
2023-01-26T12:13:37.389Z,3.52
2023-01-26T12:16:22.262Z,3.77
2023-01-26T12:19:11.193Z,4.23
2023-01-26T12:21:50.287Z,4.81
2023-01-26T12:25:01.123Z,5.29
2023-01-26T12:27:45.164Z,5.88
2023-01-26T12:30:49.351Z,6.20
2023-01-26T12:33:23.204Z,6.53
2023-01-26T12:36:24.162Z,6.98
2023-01-26T12:39:08.176Z,7.34
2023-01-26T12:42:10.185Z,7.68
2023-01-26T12:44:47.391Z,8.09
2023-01-26T12:47:38.175Z,8.41
2023-01-26T12:50:04.898Z,8.78
2023-01-26T12:52:49.302Z,9.10
2023-01-26T12:55:44.247Z,9.49
2023-01-26T12:58:38.221Z,9.65
2023-01-26T13:01:13.320Z,9.49
2023-01-26T13:04:02.289Z,9.50
2023-01-26T13:06:29.577Z,9.52
2023-01-26T13:09:24.206Z,9.50
2023-01-26T13:11:56.344Z,9.40
2023-01-26T13:14:42.174Z,9.36
2023-01-26T13:17:17.931Z,9.49
2023-01-26T13:19:51.216Z,9.58
2023-01-26T13:22:33.192Z,9.36
2023-01-26T13:25:14.533Z,8.72
2023-01-26T13:27:53.213Z,8.33
2023-01-26T13:30:32.347Z,8.19
2023-01-26T13:33:32.251Z,8.21
2023-01-26T13:36:02.413Z,8.09
2023-01-26T13:38:59.235Z,7.82
2023-01-26T13:41:26.055Z,7.62
2023-01-26T13:44:20.260Z,7.69
2023-01-26T13:47:04.351Z,7.61
2023-01-26T13:49:42.499Z,7.43
2023-01-26T13:52:35.351Z,7.36
2023-01-26T13:55:20.260Z,7.30
2023-01-26T13:57:56.376Z,7.19
2023-01-26T14:00:23.138Z,7.17
2023-01-26T14:02:56.287Z,7.23
2023-01-26T14:05:23.417Z,7.22
2023-01-26T14:07:57.329Z,7.19
2023-01-26T14:10:24.458Z,7.16
2023-01-26T14:13:03.234Z,7.14
2023-01-26T14:15:33.078Z,7.02
2023-01-26T14:18:09.316Z,6.88
2023-01-26T14:20:46.227Z,6.71
2023-01-26T14:23:22.257Z,6.57
2023-01-26T14:25:59.344Z,6.51
2023-01-26T14:28:38.253Z,6.46
2023-01-26T14:31:18.789Z,6.40
2023-01-26T14:33:53.281Z,6.34
2023-01-26T14:36:28.270Z,6.26
2023-01-26T14:39:01.231Z,6.24
2023-01-26T14:41:38.265Z,6.23
2023-01-26T14:44:12.254Z,6.23
2023-01-26T14:47:20.246Z,6.22
2023-01-26T14:49:57.258Z,6.19
2023-01-26T14:52:25.733Z,6.18
2023-01-26T14:55:08.242Z,6.15
2023-01-26T14:57:41.662Z,6.11
2023-01-26T15:00:32.305Z,6.08
2023-01-26T15:03:01.838Z,6.05
2023-01-26T15:05:46.523Z,6.02
2023-01-26T15:08:23.811Z,5.97
2023-01-26T15:10:57.222Z,5.96
2023-01-26T15:13:29.651Z,5.91
2023-01-26T15:16:18.349Z,5.86
2023-01-26T15:18:46.056Z,5.81
2023-01-26T15:21:29.268Z,5.79
2023-01-26T15:24:02.377Z,5.77
2023-01-26T15:26:41.314Z,5.75
2023-01-26T15:29:28.327Z,5.75
2023-01-26T15:32:03.242Z,5.69
2023-01-26T15:34:42.271Z,5.68
2023-01-26T15:37:48.317Z,5.66
2023-01-26T15:40:15.566Z,5.63
2023-01-26T15:42:49.296Z,5.59
2023-01-26T15:45:24.754Z,5.60
2023-01-26T15:47:58.325Z,5.54
2023-01-26T15:50:32.268Z,5.53
2023-01-26T15:53:08.000Z,5.49
2023-01-26T15:55:42.301Z,5.50
2023-01-26T15:58:08.964Z,5.49
2023-01-26T16:00:43.476Z,5.45
2023-01-26T16:03:15.382Z,5.47
2023-01-26T16:05:49.232Z,5.50
2023-01-26T16:08:24.365Z,5.49
2023-01-26T16:10:51.419Z,5.49
2023-01-26T16:13:29.319Z,7.46
2023-01-26T16:15:56.155Z,14.96
2023-01-26T16:18:22.812Z,19.51
2023-01-26T16:20:58.516Z,22.10
2023-01-26T16:23:35.299Z,16.83
2023-01-26T16:26:08.307Z,12.42
2023-01-26T16:28:34.997Z,9.88
2023-01-26T16:31:08.326Z,8.43
2023-01-26T16:33:41.273Z,13.55
2023-01-26T16:36:10.623Z,19.08
2023-01-26T16:38:44.281Z,19.16
2023-01-26T16:41:22.279Z,14.40
2023-01-26T16:43:48.943Z,11.03
2023-01-26T16:46:22.249Z,9.18
2023-01-26T16:48:49.064Z,7.93
2023-01-26T16:51:33.282Z,7.16
2023-01-26T16:54:29.305Z,6.65
2023-01-26T16:57:02.334Z,6.25
2023-01-26T16:59:29.044Z,6.00
2023-01-26T17:02:02.332Z,5.86
2023-01-26T17:04:35.259Z,5.75
2023-01-26T17:07:01.983Z,5.64
2023-01-26T17:09:42.320Z,5.53
2023-01-26T17:12:18.304Z,5.50
2023-01-26T17:14:44.997Z,5.48
2023-01-26T17:17:18.352Z,5.44
2023-01-26T17:19:45.125Z,5.34
2023-01-26T17:22:18.348Z,5.41
2023-01-26T17:24:51.336Z,5.41
2023-01-26T17:27:24.355Z,5.37
2023-01-26T17:29:51.114Z,5.35
2023-01-26T17:32:31.388Z,5.35
2023-01-26T17:34:58.107Z,5.33
2023-01-26T17:37:34.344Z,5.30
2023-01-26T17:40:07.342Z,5.32
2023-01-26T17:42:41.343Z,5.28
2023-01-26T17:45:10.187Z,5.26
2023-01-26T17:47:45.299Z,5.26
2023-01-26T17:50:11.962Z,5.22
2023-01-26T17:52:45.350Z,5.21
2023-01-26T17:55:18.290Z,5.19
2023-01-26T17:57:51.680Z,5.18
2023-01-26T18:00:25.323Z,5.17
2023-01-26T18:02:51.961Z,5.18
2023-01-26T18:05:25.421Z,5.19
2023-01-26T18:07:51.973Z,5.14
2023-01-26T18:10:18.821Z,5.13
2023-01-26T18:12:52.309Z,5.14
2023-01-26T18:15:18.973Z,5.15
2023-01-26T18:17:52.353Z,5.14
2023-01-26T18:20:19.192Z,5.15
2023-01-26T18:22:52.491Z,5.11
2023-01-26T18:25:20.992Z,5.12
2023-01-26T18:27:54.364Z,5.07
2023-01-26T18:30:21.121Z,5.09
2023-01-26T18:32:54.332Z,5.09
2023-01-26T18:35:20.994Z,5.07
2023-01-26T18:37:54.403Z,5.06
2023-01-26T18:40:21.239Z,5.09
2023-01-26T18:42:47.873Z,5.11
2023-01-26T18:45:21.376Z,5.08
2023-01-26T18:47:56.438Z,5.08
2023-01-26T18:50:23.247Z,5.14
2023-01-26T18:52:49.897Z,5.12
2023-01-26T18:55:23.353Z,5.11
2023-01-26T18:57:50.941Z,5.09
2023-01-26T19:00:24.395Z,4.96
2023-01-26T19:02:57.759Z,5.09
2023-01-26T19:05:31.405Z,5.07
2023-01-26T19:07:58.248Z,5.09
2023-01-26T19:10:31.395Z,5.06
2023-01-26T19:12:58.124Z,5.06
2023-01-26T19:15:27.983Z,5.02
2023-01-26T19:18:01.421Z,4.99
2023-01-26T19:20:28.447Z,4.97
2023-01-26T19:23:03.497Z,4.96
2023-01-26T19:25:31.061Z,4.98
2023-01-26T19:28:04.370Z,4.96
2023-01-26T19:30:31.420Z,4.94
2023-01-26T19:33:23.374Z,4.93
2023-01-26T19:35:58.374Z,4.92
2023-01-26T19:38:25.452Z,4.86
2023-01-26T19:40:59.413Z,4.88
2023-01-26T19:43:26.268Z,4.82
2023-01-26T19:46:01.486Z,4.82
2023-01-26T19:48:29.178Z,4.82
2023-01-26T19:51:17.509Z,4.79
2023-01-26T19:53:46.714Z,4.76
2023-01-26T19:56:25.481Z,4.72
2023-01-26T19:59:00.391Z,4.68
2023-01-26T20:01:35.408Z,4.63
2023-01-26T20:04:09.327Z,4.58
2023-01-26T20:06:44.450Z,4.57
2023-01-26T20:09:11.135Z,4.54
2023-01-26T20:11:46.446Z,4.51
2023-01-26T20:14:22.371Z,4.48
2023-01-26T20:16:49.223Z,4.41
2023-01-26T20:19:22.366Z,4.40
2023-01-26T20:21:49.259Z,4.35
2023-01-26T20:24:23.465Z,4.34
2023-01-26T20:26:57.387Z,4.30
2023-01-26T20:29:30.449Z,4.27
2023-01-26T20:31:57.225Z,4.22
2023-01-26T20:34:30.471Z,4.24
2023-01-26T20:37:00.340Z,4.22
2023-01-26T20:39:34.430Z,4.21
2023-01-26T20:42:07.531Z,4.17
2023-01-26T20:44:43.347Z,4.18
2023-01-26T20:47:10.208Z,4.17
2023-01-26T20:49:44.396Z,4.18
2023-01-26T20:52:17.395Z,4.18
2023-01-26T20:54:50.441Z,4.23
2023-01-26T20:57:17.464Z,4.23
2023-01-26T20:59:51.427Z,4.25
2023-01-26T21:02:18.216Z,4.27
2023-01-26T21:04:51.463Z,4.26
2023-01-26T21:07:24.418Z,4.27
2023-01-26T21:09:51.107Z,4.27
2023-01-26T21:12:24.405Z,4.25
2023-01-26T21:14:51.213Z,4.25
2023-01-26T21:17:26.453Z,4.24
2023-01-26T21:19:53.197Z,4.26
2023-01-26T21:22:27.415Z,4.26
2023-01-26T21:24:54.256Z,4.25
2023-01-26T21:27:27.567Z,4.27
2023-01-26T21:29:54.294Z,4.27
2023-01-26T21:32:27.482Z,4.27
2023-01-26T21:34:54.221Z,4.24
2023-01-26T21:37:27.420Z,4.24
2023-01-26T21:40:00.532Z,4.21
2023-01-26T21:42:27.346Z,4.15
2023-01-26T21:45:32.495Z,4.17
2023-01-26T21:48:24.408Z,4.18
2023-01-26T21:51:19.424Z,4.16
2023-01-26T21:53:47.709Z,4.17
2023-01-26T21:56:28.456Z,4.16
2023-01-26T21:58:57.803Z,4.13
2023-01-26T22:01:32.523Z,4.14
2023-01-26T22:04:00.999Z,4.14
2023-01-26T22:06:35.500Z,4.11
2023-01-26T22:09:02.337Z,4.10
2023-01-26T22:11:35.450Z,4.07
2023-01-26T22:14:02.284Z,4.06
2023-01-26T22:16:35.600Z,4.00
2023-01-26T22:19:02.394Z,4.05
2023-01-26T22:21:35.501Z,3.98
2023-01-26T22:24:02.510Z,4.01
2023-01-26T22:26:35.546Z,4.00
2023-01-26T22:29:13.436Z,3.98
2023-01-26T22:31:40.189Z,3.90
2023-01-26T22:34:13.473Z,3.94
2023-01-26T22:36:41.206Z,3.94
2023-01-26T22:39:14.424Z,3.92
2023-01-26T22:41:41.142Z,3.88
2023-01-26T22:44:14.438Z,3.89
2023-01-26T22:46:41.243Z,3.87
2023-01-26T22:49:14.507Z,3.84
2023-01-26T22:51:49.071Z,3.84
2023-01-26T22:54:22.552Z,3.81
2023-01-26T22:57:02.432Z,3.81
2023-01-26T22:59:29.603Z,3.78
2023-01-26T23:02:02.469Z,3.75
2023-01-26T23:04:29.243Z,3.75
2023-01-26T23:07:02.531Z,3.73
2023-01-26T23:09:29.449Z,3.71
2023-01-26T23:12:02.513Z,3.71
2023-01-26T23:14:30.906Z,3.68
2023-01-26T23:17:04.512Z,3.65
2023-01-26T23:19:33.715Z,3.65
2023-01-26T23:22:06.453Z,3.63
2023-01-26T23:24:33.239Z,3.63
2023-01-26T23:27:06.505Z,3.63
2023-01-26T23:29:33.263Z,3.60
2023-01-26T23:32:00.039Z,3.58
2023-01-26T23:34:33.501Z,3.59
2023-01-26T23:37:06.511Z,3.59
2023-01-26T23:39:39.520Z,3.58
2023-01-26T23:42:06.712Z,3.52
2023-01-26T23:44:39.514Z,3.49
2023-01-26T23:47:06.417Z,3.53
2023-01-26T23:49:39.575Z,3.53
2023-01-26T23:52:06.385Z,3.53
2023-01-26T23:54:39.477Z,3.54
2023-01-26T23:57:12.616Z,3.51
2023-01-26T23:59:45.546Z,3.51
